createdAt,value
2022-08-11T00:01:28.317Z,95603.03
2022-08-11T00:03:59.514Z,95599.03
2022-08-11T00:06:40.124Z,95592.38
2022-08-11T00:09:13.063Z,95603.88
2022-08-11T00:11:52.368Z,95604.50
2022-08-11T00:14:37.151Z,95608.72
2022-08-11T00:17:13.894Z,95612.91
2022-08-11T00:20:12.349Z,95609.69
2022-08-11T00:22:40.738Z,95616.25
2022-08-11T00:25:21.672Z,95611.59
2022-08-11T00:27:50.627Z,95611.88
2022-08-11T00:30:19.559Z,95610.69
2022-08-11T00:32:56.915Z,95614.63
2022-08-11T00:35:51.481Z,95618.84
2022-08-11T00:38:23.658Z,95611.88
2022-08-11T00:41:00.323Z,95617.44
2022-08-11T00:43:50.584Z,95617.06
2022-08-11T00:46:47.257Z,95613.59
2022-08-11T00:49:40.672Z,95615.78
2022-08-11T00:52:13.631Z,95618.44
2022-08-11T00:55:28.115Z,95613.47
2022-08-11T00:58:15.047Z,95620.09
2022-08-11T01:00:55.696Z,95622.00
2022-08-11T01:03:54.356Z,95628.16
2022-08-11T01:06:51.440Z,95608.41
2022-08-11T01:09:41.780Z,95629.16
2022-08-11T01:12:41.658Z,95634.59
2022-08-11T01:15:57.456Z,95635.00
2022-08-11T01:18:35.993Z,95630.19
2022-08-11T01:21:47.267Z,95634.41
2022-08-11T01:24:22.169Z,95631.84
2022-08-11T01:27:21.593Z,95641.06
2022-08-11T01:30:09.018Z,95640.09
2022-08-11T01:33:02.815Z,95641.16
2022-08-11T01:35:41.415Z,95634.88
2022-08-11T01:38:41.402Z,95635.34
2022-08-11T01:42:22.279Z,95637.84
2022-08-11T01:45:22.079Z,95644.25
2022-08-11T01:48:13.688Z,95640.44
2022-08-11T01:50:54.426Z,95642.94
2022-08-11T01:53:38.227Z,95630.75
2022-08-11T01:56:30.671Z,95622.00
2022-08-11T01:59:17.505Z,95634.72
2022-08-11T02:02:04.900Z,95649.47
2022-08-11T02:04:37.109Z,95650.53
2022-08-11T02:07:11.909Z,95648.00
2022-08-11T02:09:51.942Z,95652.25
2022-08-11T02:12:39.961Z,95649.47
2022-08-11T02:15:28.467Z,95648.50
2022-08-11T02:18:23.824Z,95656.41
2022-08-11T02:21:26.354Z,95651.22
2022-08-11T02:24:07.896Z,95646.59
2022-08-11T02:27:15.681Z,95667.09
2022-08-11T02:30:09.139Z,95660.91
2022-08-11T02:33:08.106Z,95661.28
2022-08-11T02:35:52.578Z,95667.97
2022-08-11T02:38:44.055Z,95667.75
2022-08-11T02:42:02.447Z,95676.03
2022-08-11T02:44:53.231Z,95675.44
2022-08-11T02:47:43.556Z,95675.09
2022-08-11T02:50:32.383Z,95671.31
2022-08-11T02:53:18.127Z,95673.13
2022-08-11T02:56:11.776Z,95677.22
2022-08-11T02:59:12.445Z,95682.44
2022-08-11T03:02:33.830Z,95676.78
2022-08-11T03:05:09.212Z,95674.91
2022-08-11T03:07:59.062Z,95685.69
2022-08-11T03:10:35.971Z,95677.00
2022-08-11T03:13:47.261Z,95682.59
2022-08-11T03:16:47.718Z,95679.28
2022-08-11T03:19:16.576Z,95676.34
2022-08-11T03:22:06.660Z,95681.69
2022-08-11T03:25:03.585Z,95684.91
2022-08-11T03:27:55.759Z,95681.03
2022-08-11T03:30:34.896Z,95686.75
2022-08-11T03:33:40.926Z,95688.25
2022-08-11T03:36:28.242Z,95690.13
2022-08-11T03:39:17.235Z,95694.44
2022-08-11T03:42:10.114Z,95697.53
2022-08-11T03:45:20.776Z,95700.56
2022-08-11T03:48:30.475Z,95693.09
2022-08-11T03:51:14.292Z,95692.94
2022-08-11T03:54:00.981Z,95706.47
2022-08-11T03:56:57.534Z,95707.69
2022-08-11T03:59:47.501Z,95714.59
2022-08-11T04:02:44.015Z,95710.19
2022-08-11T04:05:34.411Z,95706.47
2022-08-11T04:08:34.517Z,95709.59
2022-08-11T04:11:27.705Z,95710.50
2022-08-11T04:14:24.254Z,95719.25
2022-08-11T04:17:07.964Z,95714.22
2022-08-11T04:20:03.895Z,95717.78
2022-08-11T04:22:55.582Z,95714.25
2022-08-11T04:25:55.867Z,95716.69
2022-08-11T04:28:49.951Z,95710.13
2022-08-11T04:31:52.266Z,95716.38
2022-08-11T04:34:21.312Z,95733.03
2022-08-11T04:37:35.096Z,95721.13
2022-08-11T04:40:06.825Z,95720.47
2022-08-11T04:43:23.714Z,95714.63
2022-08-11T04:46:25.742Z,95714.63
2022-08-11T04:49:33.839Z,95715.78
2022-08-11T04:52:35.988Z,95713.22
2022-08-11T04:55:44.305Z,95720.69
2022-08-11T04:58:37.473Z,95727.88
2022-08-11T05:01:36.990Z,95727.41
2022-08-11T05:04:40.057Z,95734.75
2022-08-11T05:07:50.176Z,95735.41
2022-08-11T05:10:40.020Z,95725.75
2022-08-11T05:13:41.859Z,95730.72
2022-08-11T05:16:36.397Z,95731.22
2022-08-11T05:19:24.533Z,95732.88
2022-08-11T05:22:17.386Z,95733.56
2022-08-11T05:26:43.729Z,95741.97
2022-08-11T05:28:39.358Z,95742.16
2022-08-11T05:31:31.151Z,95742.63
2022-08-11T05:34:27.490Z,95741.38
2022-08-11T05:37:26.235Z,95744.38
2022-08-11T05:40:27.325Z,95745.66
2022-08-11T05:43:22.601Z,95742.25
2022-08-11T05:46:18.940Z,95742.09
2022-08-11T05:49:07.654Z,95732.66
2022-08-11T05:52:05.258Z,95742.03
2022-08-11T05:54:54.427Z,95744.75
2022-08-11T05:57:49.646Z,95743.75
2022-08-11T06:00:22.015Z,95737.72
2022-08-11T06:03:07.909Z,95746.16
2022-08-11T06:05:43.858Z,95739.56
2022-08-11T06:08:14.230Z,95733.97
2022-08-11T06:10:45.421Z,95740.50
2022-08-11T06:13:18.842Z,95742.38
2022-08-11T06:15:53.626Z,95738.88
2022-08-11T06:18:23.344Z,95741.56
2022-08-11T06:20:58.778Z,95741.16
2022-08-11T06:23:33.248Z,95736.44
2022-08-11T06:26:10.847Z,95746.53
2022-08-11T06:28:45.627Z,95745.78
2022-08-11T06:31:25.702Z,95741.66
2022-08-11T06:34:08.599Z,95752.06
2022-08-11T06:36:52.910Z,95746.59
2022-08-11T06:39:48.064Z,95749.47
2022-08-11T06:42:35.181Z,95745.94
2022-08-11T06:45:26.477Z,95745.28
2022-08-11T06:47:56.529Z,95743.28
2022-08-11T06:50:44.192Z,95746.59
2022-08-11T06:53:15.927Z,95747.91
2022-08-11T06:56:06.397Z,95750.41
2022-08-11T06:58:59.345Z,95746.34
2022-08-11T07:02:03.520Z,95758.25
2022-08-11T07:04:50.050Z,95744.88
2022-08-11T07:08:33.745Z,95739.16
2022-08-11T07:11:34.461Z,95750.13
2022-08-11T07:14:23.312Z,95748.34
2022-08-11T07:16:54.123Z,95746.94
2022-08-11T07:19:49.528Z,95746.25
2022-08-11T07:22:41.880Z,95742.47
2022-08-11T07:25:34.214Z,95755.06
2022-08-11T07:28:36.947Z,95751.22
2022-08-11T07:31:15.670Z,95735.38
2022-08-11T07:34:06.893Z,95747.84
2022-08-11T07:36:43.432Z,95749.91
2022-08-11T07:39:21.585Z,95754.88
2022-08-11T07:41:52.766Z,95738.38
2022-08-11T07:44:29.495Z,95747.47
2022-08-11T07:47:20.154Z,95734.78
2022-08-11T07:50:12.336Z,95735.75
2022-08-11T07:52:41.531Z,95741.13
2022-08-11T07:55:15.707Z,95728.03
2022-08-11T07:58:15.370Z,95746.47
2022-08-11T08:01:21.793Z,95746.16
2022-08-11T08:04:10.563Z,95741.22
2022-08-11T08:06:59.354Z,95735.41
2022-08-11T08:09:47.890Z,95742.50
2022-08-11T08:12:35.816Z,95735.78
2022-08-11T08:15:27.823Z,95739.16
2022-08-11T08:18:20.602Z,95738.66
2022-08-11T08:20:51.188Z,95740.16
2022-08-11T08:23:34.963Z,95749.63
2022-08-11T08:26:42.218Z,95752.63
2022-08-11T08:29:41.009Z,95744.22
2022-08-11T08:32:11.838Z,95734.50
2022-08-11T08:34:41.601Z,95747.97
2022-08-11T08:37:15.872Z,95745.06
2022-08-11T08:39:59.985Z,95739.34
2022-08-11T08:42:32.716Z,95748.72
2022-08-11T08:45:09.006Z,95753.94
2022-08-11T08:47:43.451Z,95741.09
2022-08-11T08:50:16.571Z,95752.50
2022-08-11T08:52:55.365Z,95754.63
2022-08-11T08:55:24.704Z,95747.25
2022-08-11T08:58:01.300Z,95748.59
2022-08-11T09:00:45.513Z,95750.56
2022-08-11T09:03:40.669Z,95753.00
2022-08-11T09:06:04.456Z,95748.88
2022-08-11T09:08:35.784Z,95741.19
2022-08-11T09:11:24.698Z,95750.78
2022-08-11T09:14:04.750Z,95757.41
2022-08-11T09:16:39.635Z,95754.16
2022-08-11T09:19:09.271Z,95753.09
2022-08-11T09:21:49.599Z,95756.28
2022-08-11T09:24:38.454Z,95754.38
2022-08-11T09:27:09.151Z,95750.25
2022-08-11T09:29:40.146Z,95761.19
2022-08-11T09:32:09.511Z,95748.66
2022-08-11T09:34:39.918Z,95759.47
2022-08-11T09:37:54.687Z,95753.22
2022-08-11T09:40:30.213Z,95764.78
2022-08-11T09:43:20.555Z,95767.53
2022-08-11T09:45:53.158Z,95769.66
2022-08-11T09:48:24.564Z,95760.38
2022-08-11T09:51:00.718Z,95764.72
2022-08-11T09:53:41.064Z,95765.34
2022-08-11T09:56:35.989Z,95771.41
2022-08-11T09:59:06.403Z,95761.16
2022-08-11T10:01:49.894Z,95766.78
2022-08-11T10:04:33.485Z,95765.78
2022-08-11T10:07:11.066Z,95758.94
2022-08-11T10:09:51.173Z,95762.00
2022-08-11T10:12:27.468Z,95765.25
2022-08-11T10:15:20.735Z,95753.13
2022-08-11T10:18:12.997Z,95748.75
2022-08-11T10:20:43.577Z,95747.56
2022-08-11T10:23:32.652Z,95751.09
2022-08-11T10:26:23.905Z,95747.44
2022-08-11T10:29:11.926Z,95753.84
2022-08-11T10:32:04.340Z,95751.00
2022-08-11T10:34:33.946Z,95750.22
2022-08-11T10:37:04.502Z,95740.72
2022-08-11T10:39:35.606Z,95744.75
2022-08-11T10:42:41.393Z,95757.91
2022-08-11T10:45:33.721Z,95751.13
2022-08-11T10:48:06.012Z,95753.88
2022-08-11T10:50:53.423Z,95736.91
2022-08-11T10:53:42.332Z,95755.31
2022-08-11T10:56:29.959Z,95750.69
2022-08-11T10:59:05.263Z,95735.47
2022-08-11T11:01:36.807Z,95741.91
2022-08-11T11:04:12.421Z,95742.78
2022-08-11T11:06:51.228Z,95747.06
2022-08-11T11:09:33.308Z,95739.75
2022-08-11T11:12:28.081Z,95744.88
2022-08-11T11:15:18.129Z,95746.63
2022-08-11T11:17:57.794Z,95745.66
2022-08-11T11:20:47.395Z,95753.50
2022-08-11T11:23:54.606Z,95750.91
2022-08-11T11:26:35.305Z,95752.53
2022-08-11T11:29:34.263Z,95755.91
2022-08-11T11:32:25.292Z,95769.69
2022-08-11T11:34:58.849Z,95764.19
2022-08-11T11:37:30.635Z,95769.09
2022-08-11T11:40:01.695Z,95755.63
2022-08-11T11:42:32.336Z,95765.16
2022-08-11T11:45:03.717Z,95767.03
2022-08-11T11:47:33.869Z,95762.56
2022-08-11T11:50:04.597Z,95769.03
2022-08-11T11:52:34.431Z,95773.34
2022-08-11T11:55:07.541Z,95771.81
2022-08-11T11:57:59.440Z,95778.81
2022-08-11T12:00:50.895Z,95772.28
2022-08-11T12:03:23.056Z,95782.53
2022-08-11T12:05:53.917Z,95781.38
2022-08-11T12:08:27.804Z,95785.44
2022-08-11T12:11:19.380Z,95789.06
2022-08-11T12:13:54.304Z,95797.41
2022-08-11T12:16:33.023Z,95800.50
2022-08-11T12:19:10.980Z,95804.69
2022-08-11T12:22:01.392Z,95806.03
2022-08-11T12:24:52.045Z,95803.91
2022-08-11T12:27:28.585Z,95793.22
2022-08-11T12:30:01.272Z,95812.28
2022-08-11T12:32:34.098Z,95806.94
2022-08-11T12:35:04.058Z,95817.53
2022-08-11T12:37:41.681Z,95811.72
2022-08-11T12:41:12.029Z,95809.09
2022-08-11T12:43:56.877Z,95814.03
2022-08-11T12:46:53.299Z,95822.94
2022-08-11T12:49:45.383Z,95823.25
2022-08-11T12:52:25.936Z,95826.00
2022-08-11T12:55:03.135Z,95829.47
2022-08-11T12:58:00.805Z,95826.00
2022-08-11T13:00:52.410Z,95836.91
2022-08-11T13:03:40.861Z,95832.72
2022-08-11T13:06:10.451Z,95845.59
2022-08-11T13:08:41.774Z,95848.44
2022-08-11T13:11:55.724Z,95836.28
2022-08-11T13:14:19.705Z,95818.38
2022-08-11T13:17:08.416Z,95846.53
2022-08-11T13:19:38.870Z,95846.25
2022-08-11T13:22:08.045Z,95842.25
2022-08-11T13:24:37.865Z,95844.91
2022-08-11T13:27:07.788Z,95824.50
2022-08-11T13:29:37.354Z,95842.13
2022-08-11T13:32:06.682Z,95837.03
2022-08-11T13:34:42.254Z,95840.81
2022-08-11T13:37:13.843Z,95838.31
2022-08-11T13:39:48.985Z,95840.84
2022-08-11T13:42:21.191Z,95844.53
2022-08-11T13:44:50.491Z,95833.81
2022-08-11T13:47:24.213Z,95839.38
2022-08-11T13:49:53.600Z,95834.44
2022-08-11T13:52:22.788Z,95834.19
2022-08-11T13:54:53.801Z,95827.78
2022-08-11T13:58:07.656Z,95835.59
2022-08-11T14:00:24.964Z,95831.44
2022-08-11T14:02:58.512Z,95826.13
2022-08-11T14:05:31.955Z,95832.06
2022-08-11T14:08:04.340Z,95830.25
2022-08-11T14:10:35.115Z,95841.97
2022-08-11T14:13:27.824Z,95835.47
2022-08-11T14:16:02.758Z,95834.72
2022-08-11T14:18:33.451Z,95840.63
2022-08-11T14:21:24.238Z,95839.88
2022-08-11T14:24:01.207Z,95841.09
2022-08-11T14:26:32.335Z,95838.44
2022-08-11T14:29:08.952Z,95842.34
2022-08-11T14:31:59.135Z,95843.22
2022-08-11T14:34:35.524Z,95845.56
2022-08-11T14:37:16.757Z,95833.19
2022-08-11T14:39:58.228Z,95818.59
2022-08-11T14:42:50.459Z,95844.09
2022-08-11T14:45:57.938Z,95848.81
2022-08-11T14:48:27.930Z,95849.28
2022-08-11T14:50:58.264Z,95851.28
2022-08-11T14:53:27.919Z,95828.50
2022-08-11T14:56:15.260Z,95845.53
2022-08-11T14:58:44.717Z,95845.94
2022-08-11T15:01:41.427Z,95858.41
2022-08-11T15:04:36.050Z,95851.06
2022-08-11T15:07:00.275Z,95851.88
2022-08-11T15:09:29.903Z,95853.84
2022-08-11T15:12:31.158Z,95844.97
2022-08-11T15:15:17.858Z,95865.53
2022-08-11T15:17:49.727Z,95869.84
2022-08-11T15:20:39.674Z,95862.50
2022-08-11T15:23:27.603Z,95866.34
2022-08-11T15:26:17.369Z,95872.94
2022-08-11T15:29:09.337Z,95871.38
2022-08-11T15:31:57.852Z,95880.22
2022-08-11T15:34:48.384Z,95887.19
2022-08-11T15:37:27.007Z,95880.94
2022-08-11T15:40:32.862Z,95874.34
2022-08-11T15:43:47.629Z,95874.34
2022-08-11T15:46:30.894Z,95877.88
2022-08-11T15:49:04.424Z,95881.34
2022-08-11T15:51:43.892Z,95881.00
2022-08-11T15:54:20.826Z,95884.53
2022-08-11T15:56:52.497Z,95884.13
2022-08-11T15:59:44.732Z,95878.38
2022-08-11T16:02:37.170Z,95880.34
2022-08-11T16:05:10.709Z,95874.91
2022-08-11T16:07:41.323Z,95869.13
2022-08-11T16:10:19.976Z,95864.88
2022-08-11T16:13:07.274Z,95868.75
2022-08-11T16:16:01.210Z,95864.47
2022-08-11T16:18:41.508Z,95862.97
2022-08-11T16:21:33.956Z,95859.13
2022-08-11T16:25:58.079Z,95863.41
2022-08-11T16:27:13.058Z,95854.91
2022-08-11T16:29:47.002Z,95861.09
2022-08-11T16:32:22.736Z,95861.09
2022-08-11T16:35:18.166Z,95866.91
2022-08-11T16:38:08.441Z,95866.94
2022-08-11T16:40:38.279Z,95874.72
2022-08-11T16:43:29.246Z,95861.19
2022-08-11T16:46:37.749Z,95860.41
2022-08-11T16:49:34.655Z,95862.78
2022-08-11T16:52:05.969Z,95869.00
2022-08-11T16:54:36.015Z,95867.06
2022-08-11T16:57:33.234Z,95865.94
2022-08-11T17:00:08.389Z,95859.34
2022-08-11T17:03:02.245Z,95848.16
2022-08-11T17:05:53.637Z,95862.91
2022-08-11T17:08:56.934Z,95866.44
2022-08-11T17:11:52.628Z,95856.78
2022-08-11T17:14:35.503Z,95864.53
2022-08-11T17:17:10.277Z,95864.19
2022-08-11T17:20:42.070Z,95859.97
2022-08-11T17:22:50.783Z,95865.75
2022-08-11T17:25:21.139Z,95868.44
2022-08-11T17:27:53.408Z,95858.72
2022-08-11T17:30:44.175Z,95860.28
2022-08-11T17:33:32.879Z,95858.31
2022-08-11T17:36:03.595Z,95851.72
2022-08-11T17:38:34.654Z,95854.09
2022-08-11T17:41:23.957Z,95858.72
2022-08-11T17:44:13.502Z,95857.97
2022-08-11T17:47:05.778Z,95856.03
2022-08-11T17:49:40.216Z,95845.19
2022-08-11T17:52:35.137Z,95840.94
2022-08-11T17:55:51.889Z,95831.22
2022-08-11T17:58:32.803Z,95833.16
2022-08-11T18:01:29.399Z,95838.25
2022-08-11T18:03:59.499Z,95827.47
2022-08-11T18:06:34.162Z,95823.25
2022-08-11T18:09:25.619Z,95818.59
2022-08-11T18:12:14.946Z,95816.72
2022-08-11T18:15:07.875Z,95820.19
2022-08-11T18:17:56.230Z,95806.66
2022-08-11T18:20:44.073Z,95815.19
2022-08-11T18:23:46.182Z,95815.19
2022-08-11T18:26:40.042Z,95814.41
2022-08-11T18:29:29.150Z,95816.72
2022-08-11T18:32:20.975Z,95818.63
2022-08-11T18:35:13.831Z,95822.91
2022-08-11T18:38:06.379Z,95832.19
2022-08-11T18:40:55.892Z,95818.28
2022-08-11T18:43:46.386Z,95805.91
2022-08-11T18:46:36.972Z,95803.59
2022-08-11T18:50:02.608Z,95821.00
2022-08-11T18:52:42.668Z,95824.09
2022-08-11T18:55:35.735Z,95815.97
2022-08-11T18:58:26.792Z,95818.28
2022-08-11T19:01:18.307Z,95820.19
2022-08-11T19:04:10.674Z,95815.16
2022-08-11T19:07:00.287Z,95818.28
2022-08-11T19:09:49.199Z,95815.59
2022-08-11T19:12:37.677Z,95817.91
2022-08-11T19:15:28.023Z,95817.91
2022-08-11T19:18:17.267Z,95810.56
2022-08-11T19:21:05.252Z,95818.28
2022-08-11T19:24:03.676Z,95823.34
2022-08-11T19:26:53.360Z,95824.13
2022-08-11T19:30:06.982Z,95826.06
2022-08-11T19:32:52.142Z,95823.75
2022-08-11T19:35:39.982Z,95816.78
2022-08-11T19:38:27.970Z,95821.41
2022-08-11T19:41:21.853Z,95826.06
2022-08-11T19:44:26.912Z,95822.22
2022-08-11T19:47:15.590Z,95826.06
2022-08-11T19:50:04.279Z,95826.84
2022-08-11T19:52:55.532Z,95820.66
2022-08-11T19:55:45.500Z,95830.31
2022-08-11T19:58:34.074Z,95811.78
2022-08-11T20:01:22.012Z,95811.78
2022-08-11T20:04:09.302Z,95813.72
2022-08-11T20:06:57.769Z,95804.81
2022-08-11T20:10:04.986Z,95804.06
2022-08-11T20:12:58.472Z,95814.09
2022-08-11T20:15:47.481Z,95816.78
2022-08-11T20:18:36.408Z,95813.72
2022-08-11T20:21:30.911Z,95809.06
2022-08-11T20:24:21.141Z,95817.56
2022-08-11T20:27:24.031Z,95816.38
2022-08-11T20:30:15.369Z,95800.91
2022-08-11T20:33:04.094Z,95798.22
2022-08-11T20:35:53.375Z,95809.41
2022-08-11T20:38:43.488Z,95809.03
2022-08-11T20:41:31.883Z,95805.94
2022-08-11T20:44:38.232Z,95816.38
2022-08-11T20:47:27.126Z,95815.22
2022-08-11T20:50:20.297Z,95808.25
2022-08-11T20:53:09.286Z,95812.50
2022-08-11T20:55:57.580Z,95814.84
2022-08-11T20:59:13.995Z,95817.13
2022-08-11T21:01:56.340Z,95805.16
2022-08-11T21:04:54.450Z,95809.38
2022-08-11T21:07:55.167Z,95810.56
2022-08-11T21:10:51.153Z,95807.47
2022-08-11T21:13:42.178Z,95804.38
2022-08-11T21:16:35.973Z,95804.38
2022-08-11T21:20:01.416Z,95809.78
2022-08-11T21:22:43.350Z,95813.28
2022-08-11T21:25:49.512Z,95810.56
2022-08-11T21:28:39.349Z,95808.63
2022-08-11T21:31:28.114Z,95812.88
2022-08-11T21:34:16.492Z,95809.03
2022-08-11T21:37:04.776Z,95804.78
2022-08-11T21:39:53.677Z,95802.06
2022-08-11T21:42:41.877Z,95799.75
2022-08-11T21:45:32.398Z,95813.28
2022-08-11T21:48:21.506Z,95809.81
2022-08-11T21:51:08.767Z,95813.66
2022-08-11T21:53:57.039Z,95805.59
2022-08-11T21:56:46.023Z,95810.63
2022-08-11T21:59:39.588Z,95806.38
2022-08-11T22:02:29.084Z,95814.09
2022-08-11T22:05:16.646Z,95808.66
2022-08-11T22:08:03.949Z,95812.91
2022-08-11T22:10:51.250Z,95813.31
2022-08-11T22:13:38.714Z,95815.25
2022-08-11T22:16:27.018Z,95804.00
2022-08-11T22:19:15.629Z,95816.00
2022-08-11T22:22:04.556Z,95821.81
2022-08-11T22:24:57.319Z,95807.47
2022-08-11T22:27:45.016Z,95803.97
2022-08-11T22:30:32.271Z,95792.38
2022-08-11T22:33:26.976Z,95803.19
2022-08-11T22:36:17.066Z,95798.16
2022-08-11T22:39:06.425Z,95803.94
2022-08-11T22:41:53.755Z,95803.16
2022-08-11T22:44:41.251Z,95806.97
2022-08-11T22:47:40.401Z,95803.09
2022-08-11T22:50:29.796Z,95811.59
2022-08-11T22:53:19.362Z,95806.94
2022-08-11T22:56:07.901Z,95778.31
2022-08-11T22:58:55.247Z,95798.00
2022-08-11T23:01:55.400Z,95802.97
2022-08-11T23:04:45.646Z,95806.44
2022-08-11T23:07:50.417Z,95802.50
2022-08-11T23:10:40.452Z,95800.53
2022-08-11T23:13:28.151Z,95805.47
2022-08-11T23:16:15.475Z,95804.94
2022-08-11T23:19:04.462Z,95802.47
2022-08-11T23:21:53.932Z,95803.06
2022-08-11T23:24:43.891Z,95801.41
2022-08-11T23:27:33.183Z,95810.56
2022-08-11T23:30:21.004Z,95808.91
2022-08-11T23:33:13.334Z,95797.19
2022-08-11T23:36:05.456Z,95808.38
2022-08-11T23:38:53.332Z,95799.88
2022-08-11T23:41:41.157Z,95798.91
2022-08-11T23:44:29.064Z,95794.00
2022-08-11T23:47:20.904Z,95798.88
2022-08-11T23:50:08.206Z,95799.09
2022-08-11T23:52:56.006Z,95797.44
2022-08-11T23:55:43.359Z,95792.72
2022-08-11T23:58:32.191Z,95795.03
